sensor_id;sensor_type;location;lat;lon;timestamp;P1;durP1;ratioP1;P2;durP2;ratioP2
15871;SDS011;8035;51.962;7.162;2023-06-22T00:00:52;12.83;;;11.57;;
15871;SDS011;8035;51.962;7.162;2023-06-22T00:03:18;14.67;;;11.97;;
15871;SDS011;8035;51.962;7.162;2023-06-22T00:05:45;14.83;;;12.70;;
15871;SDS011;8035;51.962;7.162;2023-06-22T00:08:14;13.20;;;11.60;;
15871;SDS011;8035;51.962;7.162;2023-06-22T00:10:40;13.37;;;12.07;;
15871;SDS011;8035;51.962;7.162;2023-06-22T00:13:07;13.40;;;12.00;;
15871;SDS011;8035;51.962;7.162;2023-06-22T00:15:33;13.87;;;11.83;;
15871;SDS011;8035;51.962;7.162;2023-06-22T00:17:59;12.63;;;11.33;;
15871;SDS011;8035;51.962;7.162;2023-06-22T00:20:26;13.87;;;12.23;;
15871;SDS011;8035;51.962;7.162;2023-06-22T00:22:53;14.67;;;11.80;;
15871;SDS011;8035;51.962;7.162;2023-06-22T00:25:18;12.73;;;11.43;;
15871;SDS011;8035;51.962;7.162;2023-06-22T00:27:44;13.50;;;12.20;;
15871;SDS011;8035;51.962;7.162;2023-06-22T00:30:10;14.80;;;13.40;;
15871;SDS011;8035;51.962;7.162;2023-06-22T00:32:36;15.70;;;13.20;;
15871;SDS011;8035;51.962;7.162;2023-06-22T00:35:02;13.77;;;12.53;;
15871;SDS011;8035;51.962;7.162;2023-06-22T00:37:27;13.50;;;12.20;;
15871;SDS011;8035;51.962;7.162;2023-06-22T00:39:54;14.23;;;12.83;;
15871;SDS011;8035;51.962;7.162;2023-06-22T00:42:20;13.90;;;12.60;;
15871;SDS011;8035;51.962;7.162;2023-06-22T00:44:46;15.90;;;13.93;;
15871;SDS011;8035;51.962;7.162;2023-06-22T00:47:13;14.07;;;11.63;;
15871;SDS011;8035;51.962;7.162;2023-06-22T00:49:41;17.40;;;14.07;;
15871;SDS011;8035;51.962;7.162;2023-06-22T00:52:06;15.87;;;14.20;;
15871;SDS011;8035;51.962;7.162;2023-06-22T00:54:46;16.10;;;13.80;;
15871;SDS011;8035;51.962;7.162;2023-06-22T00:57:14;15.20;;;13.70;;
15871;SDS011;8035;51.962;7.162;2023-06-22T00:59:43;17.47;;;14.50;;
15871;SDS011;8035;51.962;7.162;2023-06-22T01:02:10;17.30;;;14.00;;
15871;SDS011;8035;51.962;7.162;2023-06-22T01:04:36;16.10;;;14.57;;
15871;SDS011;8035;51.962;7.162;2023-06-22T01:12:25;14.30;;;12.93;;
15871;SDS011;8035;51.962;7.162;2023-06-22T01:15:01;16.13;;;14.43;;
15871;SDS011;8035;51.962;7.162;2023-06-22T01:17:33;15.53;;;14.03;;
15871;SDS011;8035;51.962;7.162;2023-06-22T01:20:00;15.20;;;13.77;;
15871;SDS011;8035;51.962;7.162;2023-06-22T01:22:30;15.97;;;14.37;;
15871;SDS011;8035;51.962;7.162;2023-06-22T01:30:20;16.10;;;14.50;;
15871;SDS011;8035;51.962;7.162;2023-06-22T01:32:47;17.07;;;15.37;;
15871;SDS011;8035;51.962;7.162;2023-06-22T01:35:14;18.00;;;15.87;;
15871;SDS011;8035;51.962;7.162;2023-06-22T01:37:40;17.93;;;16.03;;
15871;SDS011;8035;51.962;7.162;2023-06-22T01:40:06;17.17;;;15.47;;
15871;SDS011;8035;51.962;7.162;2023-06-22T01:42:33;18.03;;;16.03;;
15871;SDS011;8035;51.962;7.162;2023-06-22T01:45:00;16.73;;;15.13;;
15871;SDS011;8035;51.962;7.162;2023-06-22T01:47:27;17.70;;;15.90;;
15871;SDS011;8035;51.962;7.162;2023-06-22T01:49:53;17.30;;;15.53;;
15871;SDS011;8035;51.962;7.162;2023-06-22T01:52:20;18.00;;;16.20;;
15871;SDS011;8035;51.962;7.162;2023-06-22T01:54:46;17.67;;;15.83;;
15871;SDS011;8035;51.962;7.162;2023-06-22T01:57:13;17.23;;;15.37;;
15871;SDS011;8035;51.962;7.162;2023-06-22T01:59:42;17.80;;;16.10;;
15871;SDS011;8035;51.962;7.162;2023-06-22T02:02:16;17.90;;;16.10;;
15871;SDS011;8035;51.962;7.162;2023-06-22T02:04:52;18.73;;;16.73;;
15871;SDS011;8035;51.962;7.162;2023-06-22T02:07:31;17.40;;;15.70;;
15871;SDS011;8035;51.962;7.162;2023-06-22T02:10:02;18.43;;;16.07;;
15871;SDS011;8035;51.962;7.162;2023-06-22T02:12:31;19.10;;;16.23;;
15871;SDS011;8035;51.962;7.162;2023-06-22T02:14:58;17.27;;;15.50;;
15871;SDS011;8035;51.962;7.162;2023-06-22T02:17:25;18.57;;;16.70;;
15871;SDS011;8035;51.962;7.162;2023-06-22T02:19:51;17.77;;;15.37;;
15871;SDS011;8035;51.962;7.162;2023-06-22T02:22:17;17.50;;;15.67;;
15871;SDS011;8035;51.962;7.162;2023-06-22T02:24:42;17.50;;;15.17;;
15871;SDS011;8035;51.962;7.162;2023-06-22T02:27:08;18.03;;;16.03;;
15871;SDS011;8035;51.962;7.162;2023-06-22T02:29:35;18.53;;;14.83;;
15871;SDS011;8035;51.962;7.162;2023-06-22T02:32:02;17.80;;;15.80;;
15871;SDS011;8035;51.962;7.162;2023-06-22T02:34:29;17.77;;;16.00;;
15871;SDS011;8035;51.962;7.162;2023-06-22T02:36:54;18.43;;;15.87;;
15871;SDS011;8035;51.962;7.162;2023-06-22T02:39:23;16.33;;;14.63;;
15871;SDS011;8035;51.962;7.162;2023-06-22T02:41:49;18.07;;;15.77;;
15871;SDS011;8035;51.962;7.162;2023-06-22T02:44:16;18.03;;;16.13;;
15871;SDS011;8035;51.962;7.162;2023-06-22T02:46:42;19.30;;;17.30;;
15871;SDS011;8035;51.962;7.162;2023-06-22T02:49:08;18.10;;;16.30;;
15871;SDS011;8035;51.962;7.162;2023-06-22T02:51:34;21.97;;;16.03;;
15871;SDS011;8035;51.962;7.162;2023-06-22T02:54:00;19.13;;;17.13;;
15871;SDS011;8035;51.962;7.162;2023-06-22T02:56:27;18.60;;;16.80;;
15871;SDS011;8035;51.962;7.162;2023-06-22T02:58:53;17.67;;;15.77;;
15871;SDS011;8035;51.962;7.162;2023-06-22T03:01:19;21.37;;;17.27;;
15871;SDS011;8035;51.962;7.162;2023-06-22T03:03:49;18.87;;;16.97;;
15871;SDS011;8035;51.962;7.162;2023-06-22T03:06:14;18.33;;;16.43;;
15871;SDS011;8035;51.962;7.162;2023-06-22T03:08:40;17.00;;;15.30;;
15871;SDS011;8035;51.962;7.162;2023-06-22T03:11:06;20.33;;;18.33;;
15871;SDS011;8035;51.962;7.162;2023-06-22T03:13:32;18.23;;;16.27;;
15871;SDS011;8035;51.962;7.162;2023-06-22T03:15:58;20.13;;;18.03;;
15871;SDS011;8035;51.962;7.162;2023-06-22T03:18:24;19.73;;;17.60;;
15871;SDS011;8035;51.962;7.162;2023-06-22T03:20:49;21.77;;;18.63;;
15871;SDS011;8035;51.962;7.162;2023-06-22T03:23:15;19.03;;;17.03;;
15871;SDS011;8035;51.962;7.162;2023-06-22T03:25:41;18.67;;;16.67;;
15871;SDS011;8035;51.962;7.162;2023-06-22T03:28:09;19.23;;;16.50;;
15871;SDS011;8035;51.962;7.162;2023-06-22T03:30:35;18.17;;;15.83;;
15871;SDS011;8035;51.962;7.162;2023-06-22T03:33:00;18.70;;;16.73;;
15871;SDS011;8035;51.962;7.162;2023-06-22T03:35:26;18.80;;;16.90;;
15871;SDS011;8035;51.962;7.162;2023-06-22T03:37:52;19.67;;;17.53;;
15871;SDS011;8035;51.962;7.162;2023-06-22T03:40:17;20.13;;;17.60;;
15871;SDS011;8035;51.962;7.162;2023-06-22T03:42:43;18.73;;;16.73;;
15871;SDS011;8035;51.962;7.162;2023-06-22T03:45:08;20.83;;;18.67;;
15871;SDS011;8035;51.962;7.162;2023-06-22T03:47:34;19.83;;;16.77;;
15871;SDS011;8035;51.962;7.162;2023-06-22T03:50:00;16.53;;;14.90;;
15871;SDS011;8035;51.962;7.162;2023-06-22T03:52:28;18.50;;;16.70;;
15871;SDS011;8035;51.962;7.162;2023-06-22T03:54:54;18.53;;;16.63;;
15871;SDS011;8035;51.962;7.162;2023-06-22T03:57:19;18.60;;;16.67;;
15871;SDS011;8035;51.962;7.162;2023-06-22T03:59:45;18.17;;;16.23;;
15871;SDS011;8035;51.962;7.162;2023-06-22T04:02:10;18.70;;;16.67;;
15871;SDS011;8035;51.962;7.162;2023-06-22T04:04:36;18.37;;;16.07;;
15871;SDS011;8035;51.962;7.162;2023-06-22T04:07:03;17.90;;;16.10;;
15871;SDS011;8035;51.962;7.162;2023-06-22T04:09:29;18.17;;;16.27;;
15871;SDS011;8035;51.962;7.162;2023-06-22T04:11:55;17.73;;;16.00;;
15871;SDS011;8035;51.962;7.162;2023-06-22T04:14:20;18.77;;;16.83;;
15871;SDS011;8035;51.962;7.162;2023-06-22T04:16:46;18.77;;;16.83;;
15871;SDS011;8035;51.962;7.162;2023-06-22T04:19:11;18.63;;;16.63;;
15871;SDS011;8035;51.962;7.162;2023-06-22T04:21:41;17.43;;;15.23;;
15871;SDS011;8035;51.962;7.162;2023-06-22T04:24:08;20.10;;;17.17;;
15871;SDS011;8035;51.962;7.162;2023-06-22T04:26:33;18.27;;;16.27;;
15871;SDS011;8035;51.962;7.162;2023-06-22T04:29:01;18.17;;;16.37;;
15871;SDS011;8035;51.962;7.162;2023-06-22T04:31:30;19.47;;;16.67;;
15871;SDS011;8035;51.962;7.162;2023-06-22T04:33:57;19.33;;;16.63;;
15871;SDS011;8035;51.962;7.162;2023-06-22T04:36:30;19.43;;;16.57;;
15871;SDS011;8035;51.962;7.162;2023-06-22T04:39:03;18.50;;;16.67;;
15871;SDS011;8035;51.962;7.162;2023-06-22T04:41:34;18.10;;;16.10;;
15871;SDS011;8035;51.962;7.162;2023-06-22T04:44:12;19.03;;;16.80;;
15871;SDS011;8035;51.962;7.162;2023-06-22T04:46:49;18.00;;;15.97;;
15871;SDS011;8035;51.962;7.162;2023-06-22T04:49:28;17.80;;;16.00;;
15871;SDS011;8035;51.962;7.162;2023-06-22T04:52:04;19.97;;;16.07;;
15871;SDS011;8035;51.962;7.162;2023-06-22T04:54:31;17.57;;;15.80;;
15871;SDS011;8035;51.962;7.162;2023-06-22T04:57:00;18.07;;;16.23;;
15871;SDS011;8035;51.962;7.162;2023-06-22T04:59:28;18.20;;;16.30;;
15871;SDS011;8035;51.962;7.162;2023-06-22T05:01:58;16.13;;;14.43;;
15871;SDS011;8035;51.962;7.162;2023-06-22T05:04:24;17.03;;;15.23;;
15871;SDS011;8035;51.962;7.162;2023-06-22T05:06:52;16.20;;;14.57;;
15871;SDS011;8035;51.962;7.162;2023-06-22T05:09:18;16.90;;;15.20;;
15871;SDS011;8035;51.962;7.162;2023-06-22T05:11:44;16.80;;;14.77;;
15871;SDS011;8035;51.962;7.162;2023-06-22T05:14:10;17.23;;;14.73;;
15871;SDS011;8035;51.962;7.162;2023-06-22T05:16:36;16.33;;;14.70;;
15871;SDS011;8035;51.962;7.162;2023-06-22T05:19:02;14.90;;;13.40;;
15871;SDS011;8035;51.962;7.162;2023-06-22T05:21:28;17.17;;;15.43;;
15871;SDS011;8035;51.962;7.162;2023-06-22T05:23:54;18.47;;;15.23;;
15871;SDS011;8035;51.962;7.162;2023-06-22T05:26:21;15.87;;;13.53;;
15871;SDS011;8035;51.962;7.162;2023-06-22T05:28:47;16.20;;;14.50;;
15871;SDS011;8035;51.962;7.162;2023-06-22T05:31:16;15.87;;;14.33;;
15871;SDS011;8035;51.962;7.162;2023-06-22T05:33:43;16.80;;;14.80;;
15871;SDS011;8035;51.962;7.162;2023-06-22T05:36:09;16.47;;;14.77;;
15871;SDS011;8035;51.962;7.162;2023-06-22T05:38:35;14.50;;;13.10;;
15871;SDS011;8035;51.962;7.162;2023-06-22T05:41:01;16.37;;;14.67;;
15871;SDS011;8035;51.962;7.162;2023-06-22T05:43:27;15.40;;;13.80;;
15871;SDS011;8035;51.962;7.162;2023-06-22T05:45:53;16.13;;;14.47;;
15871;SDS011;8035;51.962;7.162;2023-06-22T05:48:19;15.60;;;14.10;;
15871;SDS011;8035;51.962;7.162;2023-06-22T05:50:45;15.90;;;14.30;;
15871;SDS011;8035;51.962;7.162;2023-06-22T05:53:10;16.30;;;14.57;;
15871;SDS011;8035;51.962;7.162;2023-06-22T05:55:36;19.00;;;14.27;;
15871;SDS011;8035;51.962;7.162;2023-06-22T05:58:02;20.07;;;15.30;;
15871;SDS011;8035;51.962;7.162;2023-06-22T06:00:31;16.73;;;15.13;;
15871;SDS011;8035;51.962;7.162;2023-06-22T06:02:56;15.90;;;14.30;;
15871;SDS011;8035;51.962;7.162;2023-06-22T06:05:28;15.80;;;14.23;;
15871;SDS011;8035;51.962;7.162;2023-06-22T06:07:54;15.20;;;13.70;;
15871;SDS011;8035;51.962;7.162;2023-06-22T06:10:19;15.63;;;14.10;;
15871;SDS011;8035;51.962;7.162;2023-06-22T06:12:45;15.97;;;13.80;;
15871;SDS011;8035;51.962;7.162;2023-06-22T06:15:11;15.07;;;13.10;;
15871;SDS011;8035;51.962;7.162;2023-06-22T06:17:44;14.80;;;13.23;;
15871;SDS011;8035;51.962;7.162;2023-06-22T06:20:11;16.77;;;14.97;;
15871;SDS011;8035;51.962;7.162;2023-06-22T06:22:37;15.63;;;14.13;;
15871;SDS011;8035;51.962;7.162;2023-06-22T06:25:02;17.00;;;13.70;;
15871;SDS011;8035;51.962;7.162;2023-06-22T06:27:29;15.33;;;13.77;;
15871;SDS011;8035;51.962;7.162;2023-06-22T06:29:55;17.47;;;14.33;;
15871;SDS011;8035;51.962;7.162;2023-06-22T06:32:21;14.77;;;13.27;;
15871;SDS011;8035;51.962;7.162;2023-06-22T06:34:46;14.83;;;13.23;;
15871;SDS011;8035;51.962;7.162;2023-06-22T06:37:12;14.90;;;12.63;;
15871;SDS011;8035;51.962;7.162;2023-06-22T06:39:37;14.37;;;12.97;;
15871;SDS011;8035;51.962;7.162;2023-06-22T06:42:03;14.60;;;13.07;;
15871;SDS011;8035;51.962;7.162;2023-06-22T06:44:29;14.97;;;13.47;;
15871;SDS011;8035;51.962;7.162;2023-06-22T06:46:55;15.20;;;13.70;;
15871;SDS011;8035;51.962;7.162;2023-06-22T06:49:20;14.07;;;12.53;;
15871;SDS011;8035;51.962;7.162;2023-06-22T06:51:46;14.93;;;13.43;;
15871;SDS011;8035;51.962;7.162;2023-06-22T06:54:11;14.93;;;13.37;;
15871;SDS011;8035;51.962;7.162;2023-06-22T06:56:37;14.77;;;13.30;;
15871;SDS011;8035;51.962;7.162;2023-06-22T06:59:03;15.90;;;14.30;;
15871;SDS011;8035;51.962;7.162;2023-06-22T07:01:28;15.50;;;13.97;;
15871;SDS011;8035;51.962;7.162;2023-06-22T07:03:58;15.77;;;14.13;;
15871;SDS011;8035;51.962;7.162;2023-06-22T07:06:24;14.87;;;13.27;;
15871;SDS011;8035;51.962;7.162;2023-06-22T07:08:54;14.97;;;13.47;;
15871;SDS011;8035;51.962;7.162;2023-06-22T07:11:20;15.03;;;13.53;;
15871;SDS011;8035;51.962;7.162;2023-06-22T07:13:46;15.27;;;13.77;;
15871;SDS011;8035;51.962;7.162;2023-06-22T07:16:11;15.50;;;13.90;;
15871;SDS011;8035;51.962;7.162;2023-06-22T07:18:39;15.30;;;13.80;;
15871;SDS011;8035;51.962;7.162;2023-06-22T07:21:05;14.60;;;13.20;;
15871;SDS011;8035;51.962;7.162;2023-06-22T07:23:31;15.00;;;13.43;;
15871;SDS011;8035;51.962;7.162;2023-06-22T07:25:57;15.00;;;13.60;;
15871;SDS011;8035;51.962;7.162;2023-06-22T07:28:27;16.73;;;13.60;;
15871;SDS011;8035;51.962;7.162;2023-06-22T07:30:52;14.50;;;13.10;;
15871;SDS011;8035;51.962;7.162;2023-06-22T07:33:18;14.47;;;13.07;;
15871;SDS011;8035;51.962;7.162;2023-06-22T07:35:44;15.07;;;13.57;;
15871;SDS011;8035;51.962;7.162;2023-06-22T07:38:10;16.10;;;13.55;;
15871;SDS011;8035;51.962;7.162;2023-06-22T07:40:35;16.73;;;14.77;;
15871;SDS011;8035;51.962;7.162;2023-06-22T07:43:01;16.47;;;14.77;;
15871;SDS011;8035;51.962;7.162;2023-06-22T07:45:28;16.43;;;14.00;;
15871;SDS011;8035;51.962;7.162;2023-06-22T07:47:54;15.73;;;14.10;;
15871;SDS011;8035;51.962;7.162;2023-06-22T07:50:19;15.80;;;14.13;;
15871;SDS011;8035;51.962;7.162;2023-06-22T07:52:45;13.48;;;12.05;;
15871;SDS011;8035;51.962;7.162;2023-06-22T07:55:12;14.57;;;12.73;;
15871;SDS011;8035;51.962;7.162;2023-06-22T07:57:38;16.92;;;14.73;;
15871;SDS011;8035;51.962;7.162;2023-06-22T08:00:04;15.35;;;13.75;;
15871;SDS011;8035;51.962;7.162;2023-06-22T08:02:39;15.67;;;14.17;;
15871;SDS011;8035;51.962;7.162;2023-06-22T08:05:06;17.50;;;14.95;;
15871;SDS011;8035;51.962;7.162;2023-06-22T08:07:33;15.57;;;14.03;;
15871;SDS011;8035;51.962;7.162;2023-06-22T08:10:00;16.00;;;14.37;;
15871;SDS011;8035;51.962;7.162;2023-06-22T08:12:25;17.03;;;15.23;;
15871;SDS011;8035;51.962;7.162;2023-06-22T08:14:51;16.57;;;14.97;;
15871;SDS011;8035;51.962;7.162;2023-06-22T08:17:17;17.03;;;15.20;;
15871;SDS011;8035;51.962;7.162;2023-06-22T08:19:42;16.37;;;14.63;;
15871;SDS011;8035;51.962;7.162;2023-06-22T08:22:08;16.03;;;14.33;;
15871;SDS011;8035;51.962;7.162;2023-06-22T08:24:33;17.38;;;14.10;;
15871;SDS011;8035;51.962;7.162;2023-06-22T08:26:59;17.13;;;15.43;;
15871;SDS011;8035;51.962;7.162;2023-06-22T08:29:24;15.17;;;13.77;;
15871;SDS011;8035;51.962;7.162;2023-06-22T08:31:50;16.48;;;14.93;;
15871;SDS011;8035;51.962;7.162;2023-06-22T08:34:15;15.32;;;13.73;;
15871;SDS011;8035;51.962;7.162;2023-06-22T08:36:43;18.05;;;16.13;;
15871;SDS011;8035;51.962;7.162;2023-06-22T08:39:10;17.40;;;13.93;;
15871;SDS011;8035;51.962;7.162;2023-06-22T08:41:35;14.93;;;13.15;;
15871;SDS011;8035;51.962;7.162;2023-06-22T08:44:01;15.38;;;13.77;;
15871;SDS011;8035;51.962;7.162;2023-06-22T08:46:27;16.23;;;14.63;;
15871;SDS011;8035;51.962;7.162;2023-06-22T08:48:56;14.70;;;13.02;;
15871;SDS011;8035;51.962;7.162;2023-06-22T08:51:24;15.60;;;14.10;;
15871;SDS011;8035;51.962;7.162;2023-06-22T08:53:49;15.85;;;14.27;;
15871;SDS011;8035;51.962;7.162;2023-06-22T08:56:15;16.13;;;14.50;;
15871;SDS011;8035;51.962;7.162;2023-06-22T08:58:40;15.48;;;13.98;;
15871;SDS011;8035;51.962;7.162;2023-06-22T09:01:06;14.50;;;13.13;;
15871;SDS011;8035;51.962;7.162;2023-06-22T09:03:32;15.32;;;13.82;;
15871;SDS011;8035;51.962;7.162;2023-06-22T09:05:58;15.02;;;13.52;;
15871;SDS011;8035;51.962;7.162;2023-06-22T09:08:24;14.98;;;13.38;;
15871;SDS011;8035;51.962;7.162;2023-06-22T09:10:49;15.90;;;14.27;;
15871;SDS011;8035;51.962;7.162;2023-06-22T09:13:15;15.75;;;14.15;;
15871;SDS011;8035;51.962;7.162;2023-06-22T09:15:41;15.57;;;13.98;;
15871;SDS011;8035;51.962;7.162;2023-06-22T09:18:06;16.38;;;14.60;;
15871;SDS011;8035;51.962;7.162;2023-06-22T09:20:35;16.13;;;14.40;;
15871;SDS011;8035;51.962;7.162;2023-06-22T09:23:00;16.52;;;14.88;;
15871;SDS011;8035;51.962;7.162;2023-06-22T09:25:26;15.10;;;13.60;;
15871;SDS011;8035;51.962;7.162;2023-06-22T09:30:21;16.50;;;15.00;;
15871;SDS011;8035;51.962;7.162;2023-06-22T09:32:47;17.08;;;15.43;;
15871;SDS011;8035;51.962;7.162;2023-06-22T09:35:13;16.98;;;15.32;;
15871;SDS011;8035;51.962;7.162;2023-06-22T09:37:38;17.20;;;15.60;;
15871;SDS011;8035;51.962;7.162;2023-06-22T09:40:05;17.40;;;15.55;;
15871;SDS011;8035;51.962;7.162;2023-06-22T09:42:36;15.68;;;14.20;;
15871;SDS011;8035;51.962;7.162;2023-06-22T09:45:02;17.67;;;16.05;;
15871;SDS011;8035;51.962;7.162;2023-06-22T09:47:28;17.17;;;15.35;;
15871;SDS011;8035;51.962;7.162;2023-06-22T09:49:54;16.67;;;15.07;;
15871;SDS011;8035;51.962;7.162;2023-06-22T09:52:20;17.52;;;15.63;;
15871;SDS011;8035;51.962;7.162;2023-06-22T09:54:46;16.25;;;14.68;;
15871;SDS011;8035;51.962;7.162;2023-06-22T09:57:12;18.67;;;16.92;;
15871;SDS011;8035;51.962;7.162;2023-06-22T09:59:38;18.08;;;16.38;;
15871;SDS011;8035;51.962;7.162;2023-06-22T10:02:05;17.92;;;16.27;;
15871;SDS011;8035;51.962;7.162;2023-06-22T10:04:31;17.25;;;15.68;;
15871;SDS011;8035;51.962;7.162;2023-06-22T10:06:57;17.35;;;15.70;;
15871;SDS011;8035;51.962;7.162;2023-06-22T10:09:23;17.20;;;15.55;;
15871;SDS011;8035;51.962;7.162;2023-06-22T10:11:49;18.45;;;16.75;;
15871;SDS011;8035;51.962;7.162;2023-06-22T10:14:14;18.33;;;16.63;;
15871;SDS011;8035;51.962;7.162;2023-06-22T10:16:40;18.45;;;16.45;;
15871;SDS011;8035;51.962;7.162;2023-06-22T10:19:06;18.65;;;16.73;;
15871;SDS011;8035;51.962;7.162;2023-06-22T10:21:32;17.85;;;16.05;;
15871;SDS011;8035;51.962;7.162;2023-06-22T10:23:58;18.30;;;16.58;;
15871;SDS011;8035;51.962;7.162;2023-06-22T10:26:26;17.73;;;15.93;;
15871;SDS011;8035;51.962;7.162;2023-06-22T10:28:54;17.48;;;15.15;;
15871;SDS011;8035;51.962;7.162;2023-06-22T10:31:19;17.25;;;15.55;;
15871;SDS011;8035;51.962;7.162;2023-06-22T10:33:45;18.17;;;16.40;;
15871;SDS011;8035;51.962;7.162;2023-06-22T10:36:11;18.15;;;16.40;;
15871;SDS011;8035;51.962;7.162;2023-06-22T10:38:36;18.27;;;16.48;;
15871;SDS011;8035;51.962;7.162;2023-06-22T10:41:02;18.55;;;16.75;;
15871;SDS011;8035;51.962;7.162;2023-06-22T10:43:28;18.52;;;16.63;;
15871;SDS011;8035;51.962;7.162;2023-06-22T10:45:53;18.35;;;16.50;;
15871;SDS011;8035;51.962;7.162;2023-06-22T10:48:19;18.00;;;16.20;;
15871;SDS011;8035;51.962;7.162;2023-06-22T10:50:44;18.42;;;16.45;;
15871;SDS011;8035;51.962;7.162;2023-06-22T10:53:11;17.70;;;16.00;;
15871;SDS011;8035;51.962;7.162;2023-06-22T10:55:36;19.23;;;17.27;;
15871;SDS011;8035;51.962;7.162;2023-06-22T10:58:02;16.77;;;15.13;;
15871;SDS011;8035;51.962;7.162;2023-06-22T11:00:27;18.67;;;16.75;;
15871;SDS011;8035;51.962;7.162;2023-06-22T11:02:53;18.08;;;16.10;;
15871;SDS011;8035;51.962;7.162;2023-06-22T11:05:19;18.55;;;16.75;;
15871;SDS011;8035;51.962;7.162;2023-06-22T11:07:44;17.23;;;15.63;;
15871;SDS011;8035;51.962;7.162;2023-06-22T11:10:10;18.30;;;16.40;;
15871;SDS011;8035;51.962;7.162;2023-06-22T11:12:37;17.92;;;16.13;;
15871;SDS011;8035;51.962;7.162;2023-06-22T11:15:03;17.35;;;15.55;;
15871;SDS011;8035;51.962;7.162;2023-06-22T11:17:29;17.80;;;16.05;;
15871;SDS011;8035;51.962;7.162;2023-06-22T11:19:54;17.48;;;15.70;;
15871;SDS011;8035;51.962;7.162;2023-06-22T11:22:20;17.83;;;16.13;;
15871;SDS011;8035;51.962;7.162;2023-06-22T11:24:45;17.30;;;15.02;;
15871;SDS011;8035;51.962;7.162;2023-06-22T11:27:11;17.77;;;15.85;;
15871;SDS011;8035;51.962;7.162;2023-06-22T11:29:36;17.30;;;15.70;;
15871;SDS011;8035;51.962;7.162;2023-06-22T11:32:05;17.50;;;15.80;;
15871;SDS011;8035;51.962;7.162;2023-06-22T11:34:32;17.20;;;15.60;;
15871;SDS011;8035;51.962;7.162;2023-06-22T11:36:57;17.75;;;16.00;;
15871;SDS011;8035;51.962;7.162;2023-06-22T11:39:23;18.27;;;16.58;;
15871;SDS011;8035;51.962;7.162;2023-06-22T11:41:48;17.58;;;15.98;;
15871;SDS011;8035;51.962;7.162;2023-06-22T11:44:14;19.80;;;18.00;;
15871;SDS011;8035;51.962;7.162;2023-06-22T11:46:39;17.67;;;16.05;;
15871;SDS011;8035;51.962;7.162;2023-06-22T11:49:05;18.38;;;16.40;;
15871;SDS011;8035;51.962;7.162;2023-06-22T11:51:31;18.38;;;16.58;;
15871;SDS011;8035;51.962;7.162;2023-06-22T11:53:56;17.85;;;15.98;;
15871;SDS011;8035;51.962;7.162;2023-06-22T11:56:22;18.02;;;16.15;;
15871;SDS011;8035;51.962;7.162;2023-06-22T11:58:48;18.23;;;15.95;;
15871;SDS011;8035;51.962;7.162;2023-06-22T12:01:13;16.58;;;15.00;;
15871;SDS011;8035;51.962;7.162;2023-06-22T12:03:40;18.33;;;16.60;;
15871;SDS011;8035;51.962;7.162;2023-06-22T12:06:08;17.75;;;15.85;;
15871;SDS011;8035;51.962;7.162;2023-06-22T12:08:34;18.88;;;17.00;;
15871;SDS011;8035;51.962;7.162;2023-06-22T12:10:59;15.95;;;14.45;;
15871;SDS011;8035;51.962;7.162;2023-06-22T12:13:25;16.15;;;14.50;;
15871;SDS011;8035;51.962;7.162;2023-06-22T12:15:50;16.50;;;14.88;;
15871;SDS011;8035;51.962;7.162;2023-06-22T12:18:17;16.95;;;15.25;;
15871;SDS011;8035;51.962;7.162;2023-06-22T12:20:45;18.00;;;16.30;;
15871;SDS011;8035;51.962;7.162;2023-06-22T12:23:11;17.50;;;15.80;;
15871;SDS011;8035;51.962;7.162;2023-06-22T12:25:37;17.40;;;15.55;;
15871;SDS011;8035;51.962;7.162;2023-06-22T12:28:02;19.25;;;17.45;;
15871;SDS011;8035;51.962;7.162;2023-06-22T12:30:29;18.13;;;16.30;;
15871;SDS011;8035;51.962;7.162;2023-06-22T12:32:55;17.98;;;16.13;;
15871;SDS011;8035;51.962;7.162;2023-06-22T12:35:20;17.83;;;15.38;;
15871;SDS011;8035;51.962;7.162;2023-06-22T12:37:46;17.27;;;15.57;;
15871;SDS011;8035;51.962;7.162;2023-06-22T12:40:11;18.13;;;16.33;;
15871;SDS011;8035;51.962;7.162;2023-06-22T12:42:37;18.33;;;16.52;;
15871;SDS011;8035;51.962;7.162;2023-06-22T12:45:03;19.25;;;17.38;;
15871;SDS011;8035;51.962;7.162;2023-06-22T12:47:29;18.25;;;16.55;;
15871;SDS011;8035;51.962;7.162;2023-06-22T12:49:55;21.33;;;19.13;;
15871;SDS011;8035;51.962;7.162;2023-06-22T12:52:20;19.92;;;17.85;;
15871;SDS011;8035;51.962;7.162;2023-06-22T12:54:46;17.83;;;16.15;;
15871;SDS011;8035;51.962;7.162;2023-06-22T12:57:11;21.08;;;18.80;;
15871;SDS011;8035;51.962;7.162;2023-06-22T12:59:37;21.10;;;18.90;;
15871;SDS011;8035;51.962;7.162;2023-06-22T13:02:02;22.45;;;20.02;;
15871;SDS011;8035;51.962;7.162;2023-06-22T13:04:28;22.63;;;20.23;;
15871;SDS011;8035;51.962;7.162;2023-06-22T13:06:54;23.15;;;20.75;;
15871;SDS011;8035;51.962;7.162;2023-06-22T13:09:19;22.67;;;20.45;;
15871;SDS011;8035;51.962;7.162;2023-06-22T13:11:45;25.10;;;22.40;;
15871;SDS011;8035;51.962;7.162;2023-06-22T13:14:10;24.08;;;21.15;;
15871;SDS011;8035;51.962;7.162;2023-06-22T13:16:36;23.52;;;20.05;;
15871;SDS011;8035;51.962;7.162;2023-06-22T13:19:02;23.07;;;20.87;;
15871;SDS011;8035;51.962;7.162;2023-06-22T13:21:27;24.40;;;21.88;;
15871;SDS011;8035;51.962;7.162;2023-06-22T13:23:53;25.33;;;22.73;;
15871;SDS011;8035;51.962;7.162;2023-06-22T13:26:18;23.98;;;21.58;;
15871;SDS011;8035;51.962;7.162;2023-06-22T13:28:45;25.90;;;23.42;;
15871;SDS011;8035;51.962;7.162;2023-06-22T13:31:10;24.90;;;22.40;;
15871;SDS011;8035;51.962;7.162;2023-06-22T13:33:37;25.10;;;22.63;;
15871;SDS011;8035;51.962;7.162;2023-06-22T13:36:03;25.83;;;23.23;;
15871;SDS011;8035;51.962;7.162;2023-06-22T13:38:31;25.00;;;22.23;;
15871;SDS011;8035;51.962;7.162;2023-06-22T13:40:57;25.02;;;22.45;;
15871;SDS011;8035;51.962;7.162;2023-06-22T13:43:24;24.58;;;22.13;;
15871;SDS011;8035;51.962;7.162;2023-06-22T13:45:51;22.90;;;20.70;;
15871;SDS011;8035;51.962;7.162;2023-06-22T13:48:17;25.08;;;22.55;;
15871;SDS011;8035;51.962;7.162;2023-06-22T13:50:43;25.75;;;23.08;;
15871;SDS011;8035;51.962;7.162;2023-06-22T13:53:08;25.05;;;22.50;;
15871;SDS011;8035;51.962;7.162;2023-06-22T13:55:34;25.50;;;22.80;;
15871;SDS011;8035;51.962;7.162;2023-06-22T13:58:00;24.45;;;22.05;;
15871;SDS011;8035;51.962;7.162;2023-06-22T14:00:25;23.95;;;21.65;;
15871;SDS011;8035;51.962;7.162;2023-06-22T14:02:52;27.58;;;24.90;;
15871;SDS011;8035;51.962;7.162;2023-06-22T14:05:18;24.90;;;22.48;;
15871;SDS011;8035;51.962;7.162;2023-06-22T14:07:44;23.83;;;21.48;;
15871;SDS011;8035;51.962;7.162;2023-06-22T14:10:10;23.95;;;21.55;;
15871;SDS011;8035;51.962;7.162;2023-06-22T14:12:35;25.25;;;22.83;;
15871;SDS011;8035;51.962;7.162;2023-06-22T14:15:01;23.15;;;20.73;;
15871;SDS011;8035;51.962;7.162;2023-06-22T14:17:26;24.27;;;21.83;;
15871;SDS011;8035;51.962;7.162;2023-06-22T14:19:52;23.73;;;21.38;;
15871;SDS011;8035;51.962;7.162;2023-06-22T14:22:18;23.50;;;21.20;;
15871;SDS011;8035;51.962;7.162;2023-06-22T14:24:45;22.55;;;20.35;;
15871;SDS011;8035;51.962;7.162;2023-06-22T14:27:11;22.23;;;20.13;;
15871;SDS011;8035;51.962;7.162;2023-06-22T14:29:36;22.40;;;20.10;;
15871;SDS011;8035;51.962;7.162;2023-06-22T14:32:02;22.20;;;20.20;;
15871;SDS011;8035;51.962;7.162;2023-06-22T14:34:29;25.23;;;20.70;;
15871;SDS011;8035;51.962;7.162;2023-06-22T14:36:54;22.52;;;20.35;;
15871;SDS011;8035;51.962;7.162;2023-06-22T14:39:20;22.30;;;20.27;;
15871;SDS011;8035;51.962;7.162;2023-06-22T14:41:46;22.95;;;20.75;;